Time;durP1;ratioP1;P1;durP2;ratioP2;P2;SDS_P1;SDS_P2;PMS_P1;PMS_P2;Temp;Humidity;BMP_temperature;BMP_pressure;BME280_temperature;BME280_humidity;BME280_pressure;Samples;Min_cycle;Max_cycle;Signal;HPM_P1;HPM_P2
2021/10/25 00:01:31;;;;;;;9.55;4.32;;;6.30;88.70;;;;;;4951855;28;20039;-71
2021/10/25 00:03:57;;;;;;;7.45;4.47;;;6.30;88.60;;;;;;4954060;28;20034;-71
2021/10/25 00:06:24;;;;;;;13.82;4.78;;;6.30;88.60;;;;;;4969810;28;20030;-71
2021/10/25 00:08:49;;;;;;;9.88;4.20;;;6.30;88.50;;;;;;4955977;28;20042;-71
2021/10/25 00:11:15;;;;;;;8.88;4.75;;;6.30;88.60;;;;;;4958371;28;20045;-71
2021/10/25 00:13:41;;;;;;;10.40;5.20;;;6.30;88.70;;;;;;4960377;28;20034;-71
2021/10/25 00:16:07;;;;;;;8.60;4.10;;;6.30;88.50;;;;;;4976316;28;20046;-71
2021/10/25 00:18:34;;;;;;;8.68;4.65;;;6.20;88.20;;;;;;4962331;28;20034;-71
2021/10/25 00:21:00;;;;;;;7.47;4.63;;;6.20;88.60;;;;;;4962573;28;20094;-71
2021/10/25 00:23:26;;;;;;;10.43;5.22;;;6.20;88.70;;;;;;4961907;28;20110;-71
2021/10/25 00:25:52;;;;;;;11.15;4.70;;;6.20;88.40;;;;;;4954990;28;20027;-71
2021/10/25 00:28:17;;;;;;;8.52;4.43;;;6.10;88.20;;;;;;4949862;28;20452;-71
2021/10/25 00:30:43;;;;;;;9.20;4.65;;;6.10;88.40;;;;;;4965906;28;20030;-71
2021/10/25 00:33:09;;;;;;;9.82;4.72;;;6.00;88.40;;;;;;4967938;28;20118;-71
2021/10/25 00:35:35;;;;;;;7.50;4.22;;;6.00;88.60;;;;;;4955543;28;20716;-71
2021/10/25 00:38:01;;;;;;;10.10;4.28;;;5.90;89.00;;;;;;4971551;28;20105;-70
2021/10/25 00:40:27;;;;;;;7.93;4.65;;;5.80;89.40;;;;;;4966212;28;20034;-71
2021/10/25 00:42:53;;;;;;;7.53;4.35;;;5.80;89.60;;;;;;4947110;28;20035;-71
2021/10/25 00:45:19;;;;;;;9.00;4.60;;;5.80;90.00;;;;;;4946423;28;20100;-71
2021/10/25 00:47:45;;;;;;;7.97;4.28;;;5.80;90.00;;;;;;4944029;28;20031;-71
2021/10/25 00:50:10;;;;;;;10.68;4.40;;;5.80;90.10;;;;;;4945213;28;20077;-71
2021/10/25 00:52:38;;;;;;;11.15;4.78;;;5.70;90.00;;;;;;4946535;28;20065;-70
2021/10/25 00:55:08;;;;;;;10.05;4.60;;;5.80;90.10;;;;;;4947915;28;20505;-71
2021/10/25 00:57:34;;;;;;;10.38;4.57;;;5.80;90.00;;;;;;4972766;28;20039;-71
2021/10/25 01:00:00;;;;;;;8.85;4.03;;;5.70;90.10;;;;;;4956328;28;20880;-71
2021/10/25 01:02:26;;;;;;;9.80;4.82;;;5.70;90.20;;;;;;4967433;28;20027;-71
2021/10/25 01:04:51;;;;;;;8.57;4.60;;;5.70;90.20;;;;;;4954389;28;20038;-71
2021/10/25 01:07:18;;;;;;;9.60;4.10;;;5.70;90.00;;;;;;4967776;28;20035;-71
2021/10/25 01:09:44;;;;;;;8.52;5.00;;;5.70;90.20;;;;;;4958208;28;20043;-71
2021/10/25 01:12:11;;;;;;;11.48;4.60;;;5.70;90.30;;;;;;4960174;28;20150;-71
2021/10/25 01:14:36;;;;;;;11.93;5.15;;;5.70;90.30;;;;;;4960514;28;20422;-71
2021/10/25 01:17:02;;;;;;;10.23;5.40;;;5.70;90.20;;;;;;4961713;28;20041;-71
2021/10/25 01:19:28;;;;;;;9.85;4.75;;;5.70;90.20;;;;;;4962321;28;20023;-71
2021/10/25 01:21:54;;;;;;;8.77;4.97;;;5.70;90.10;;;;;;4960353;28;20050;-70
2021/10/25 01:24:20;;;;;;;8.13;4.05;;;5.70;89.70;;;;;;4960705;28;20661;-71
2021/10/25 01:26:46;;;;;;;8.70;4.68;;;5.70;90.00;;;;;;4956662;28;20035;-70
2021/10/25 01:29:11;;;;;;;12.13;5.00;;;5.60;90.10;;;;;;4953755;28;20066;-71
2021/10/25 01:31:39;;;;;;;11.65;4.97;;;5.60;90.30;;;;;;4970469;28;20039;-71
2021/10/25 01:34:05;;;;;;;8.82;4.32;;;5.60;90.30;;;;;;4967963;28;20425;-71
2021/10/25 01:36:34;;;;;;;8.80;3.92;;;5.60;90.20;;;;;;4953949;28;20035;-71
2021/10/25 01:39:00;;;;;;;9.20;4.10;;;5.60;90.20;;;;;;4970699;28;20097;-71
2021/10/25 01:41:26;;;;;;;8.35;4.32;;;5.60;90.30;;;;;;4957926;28;20550;-71
2021/10/25 01:43:52;;;;;;;7.28;4.25;;;5.60;90.20;;;;;;4944558;28;20105;-71
2021/10/25 01:46:18;;;;;;;8.40;4.47;;;5.60;90.40;;;;;;4958118;28;20063;-70
2021/10/25 01:48:44;;;;;;;10.75;5.03;;;5.60;90.20;;;;;;4973980;28;20459;-70
2021/10/25 01:51:10;;;;;;;8.25;4.70;;;5.60;90.00;;;;;;4959397;28;20035;-70
2021/10/25 01:53:37;;;;;;;8.10;4.10;;;5.70;89.80;;;;;;4960278;28;20110;-70
2021/10/25 01:56:05;;;;;;;9.07;4.40;;;5.70;89.70;;;;;;4970891;28;20126;-70
2021/10/25 01:58:34;;;;;;;12.50;4.65;;;5.60;89.70;;;;;;4964729;28;20399;-69
2021/10/25 02:01:02;;;;;;;7.90;4.25;;;5.60;90.00;;;;;;4960226;28;20118;-70
2021/10/25 02:03:28;;;;;;;6.63;3.75;;;5.70;89.70;;;;;;4967718;28;20756;-70
2021/10/25 02:06:00;;;;;;;7.65;4.40;;;5.60;89.40;;;;;;4959203;28;20034;-70
2021/10/25 02:08:26;;;;;;;10.10;4.65;;;5.60;89.30;;;;;;4970319;28;20038;-70
2021/10/25 02:10:58;;;;;;;8.13;4.53;;;5.60;89.50;;;;;;4962393;28;20035;-70
2021/10/25 02:13:25;;;;;;;7.95;4.03;;;5.50;90.00;;;;;;4969691;28;20070;-70
2021/10/25 02:15:53;;;;;;;8.45;4.53;;;5.60;90.30;;;;;;4960296;28;20035;-70
2021/10/25 02:18:21;;;;;;;14.23;4.10;;;5.50;89.80;;;;;;4959266;28;20038;-70
2021/10/25 02:20:47;;;;;;;7.63;4.53;;;5.50;89.70;;;;;;4958842;28;20509;-70
2021/10/25 02:23:20;;;;;;;8.13;4.22;;;5.50;90.00;;;;;;4971726;28;20031;-70
2021/10/25 02:25:48;;;;;;;11.27;4.30;;;5.50;90.20;;;;;;4960054;28;20066;-69
2021/10/25 02:28:16;;;;;;;9.30;4.63;;;5.40;90.30;;;;;;4966105;28;20039;-70
2021/10/25 02:30:45;;;;;;;9.20;4.38;;;5.40;90.40;;;;;;4959640;28;20042;-70
2021/10/25 02:33:11;;;;;;;10.00;4.40;;;5.40;90.20;;;;;;4960257;28;20030;-70
2021/10/25 02:35:36;;;;;;;6.60;4.78;;;5.40;90.10;;;;;;4959503;28;20045;-70
2021/10/25 02:38:03;;;;;;;9.90;5.13;;;5.40;90.10;;;;;;4957297;28;20511;-70
2021/10/25 02:40:31;;;;;;;9.48;4.43;;;5.30;90.30;;;;;;4961361;28;20027;-70
2021/10/25 02:42:59;;;;;;;8.40;4.28;;;5.30;90.40;;;;;;4970919;28;20031;-70
2021/10/25 02:45:25;;;;;;;7.22;4.43;;;5.30;90.50;;;;;;4959356;28;20038;-70
2021/10/25 02:47:51;;;;;;;10.02;4.40;;;5.30;90.30;;;;;;4974928;28;20062;-69
2021/10/25 02:50:17;;;;;;;7.55;3.83;;;5.30;90.30;;;;;;4972298;28;20170;-70
2021/10/25 02:52:43;;;;;;;11.40;4.20;;;5.30;90.30;;;;;;4970729;28;20034;-70
2021/10/25 02:55:10;;;;;;;10.95;5.18;;;5.30;90.30;;;;;;4964498;28;20028;-70
2021/10/25 02:57:37;;;;;;;10.77;4.45;;;5.20;90.40;;;;;;4962896;28;20050;-70
2021/10/25 03:00:07;;;;;;;6.95;3.78;;;5.30;90.60;;;;;;4951238;28;20039;-70
2021/10/25 03:02:34;;;;;;;7.55;4.55;;;5.30;90.40;;;;;;4958734;28;20037;-70
2021/10/25 03:05:01;;;;;;;9.18;3.85;;;5.20;90.50;;;;;;4965744;28;20031;-70
2021/10/25 03:07:27;;;;;;;8.88;4.57;;;5.20;90.40;;;;;;4959939;28;20455;-70
2021/10/25 03:09:52;;;;;;;9.48;4.28;;;5.30;90.30;;;;;;4960743;28;20495;-69
2021/10/25 03:12:18;;;;;;;9.88;4.35;;;5.20;90.30;;;;;;4957910;28;20038;-70
2021/10/25 03:14:44;;;;;;;9.55;4.53;;;5.20;90.40;;;;;;4970589;28;20031;-69
2021/10/25 03:17:10;;;;;;;9.90;4.53;;;5.20;90.30;;;;;;4959524;28;20126;-70
2021/10/25 03:19:51;;;;;;;7.95;4.10;;;5.20;90.40;;;;;;4956275;28;20027;-70
2021/10/25 03:22:19;;;;;;;7.95;4.22;;;5.20;90.20;;;;;;4965846;28;20102;-70
2021/10/25 03:24:45;;;;;;;7.45;4.22;;;5.20;90.20;;;;;;4961907;28;20046;-69
2021/10/25 03:27:10;;;;;;;9.20;4.63;;;5.20;90.30;;;;;;4948293;28;20047;-70
2021/10/25 03:29:36;;;;;;;10.30;4.53;;;5.10;90.30;;;;;;4958718;28;20034;-70
2021/10/25 03:32:02;;;;;;;8.57;3.83;;;5.10;90.30;;;;;;4949260;28;20543;-70
2021/10/25 03:34:30;;;;;;;10.38;4.25;;;5.10;90.40;;;;;;4961584;28;20042;-70
2021/10/25 03:36:56;;;;;;;6.93;3.63;;;5.10;90.30;;;;;;4969838;28;20043;-70
2021/10/25 03:39:24;;;;;;;11.23;4.05;;;5.10;90.40;;;;;;4958083;28;20077;-70
2021/10/25 03:41:52;;;;;;;8.45;4.05;;;5.00;90.50;;;;;;4958252;28;20058;-70
2021/10/25 03:44:27;;;;;;;9.07;3.53;;;5.10;90.70;;;;;;4975347;28;20058;-70
2021/10/25 03:53:02;;;;;;;10.23;4.30;;;5.10;90.60;;;;;;4934869;29;20050;-70
2021/10/25 03:55:54;;;;;;;9.05;4.38;;;5.00;90.50;;;;;;4921672;29;20600;-70
2021/10/25 04:28:42;;;;;;;10.50;4.00;;;4.80;90.80;;;;;;4965584;28;20085;-70
2021/10/25 04:31:08;;;;;;;8.60;3.85;;;4.70;90.90;;;;;;4948031;28;20038;-70
2021/10/25 04:33:42;;;;;;;9.40;3.60;;;4.70;91.00;;;;;;4969776;28;20454;-70
2021/10/25 04:36:31;;;;;;;8.10;3.78;;;4.70;91.00;;;;;;4946217;28;20051;-70
2021/10/25 04:39:09;;;;;;;8.98;4.25;;;4.70;91.10;;;;;;4965929;28;20031;-70
2021/10/25 04:41:34;;;;;;;5.95;3.38;;;4.70;91.10;;;;;;4973713;28;20054;-70
2021/10/25 04:44:00;;;;;;;9.30;3.92;;;4.70;91.10;;;;;;4963581;28;20118;-70
2021/10/25 04:46:26;;;;;;;10.18;4.20;;;4.70;91.00;;;;;;4960700;28;20030;-70
2021/10/25 04:48:51;;;;;;;8.30;3.70;;;4.70;91.00;;;;;;4968689;28;20035;-70
2021/10/25 04:51:24;;;;;;;10.23;4.43;;;4.70;91.10;;;;;;4975338;28;20407;-70
2021/10/25 04:53:58;;;;;;;8.88;3.63;;;4.70;91.10;;;;;;4977572;28;20035;-70
2021/10/25 04:56:30;;;;;;;8.45;3.70;;;4.70;91.00;;;;;;4967837;28;20910;-69
2021/10/25 04:58:55;;;;;;;7.35;3.88;;;4.80;90.80;;;;;;4953864;28;20290;-69
2021/10/25 05:01:21;;;;;;;8.10;3.58;;;4.80;90.90;;;;;;4971750;28;20030;-69
2021/10/25 05:03:47;;;;;;;9.85;3.72;;;4.80;90.70;;;;;;4973116;28;20031;-69
2021/10/25 05:06:19;;;;;;;7.75;3.75;;;4.80;90.60;;;;;;4961986;28;20616;-69
2021/10/25 05:08:48;;;;;;;8.00;3.95;;;4.80;90.80;;;;;;4970322;28;20041;-69
2021/10/25 05:11:16;;;;;;;10.05;4.03;;;4.80;90.50;;;;;;4962110;28;20045;-69
2021/10/25 05:13:42;;;;;;;8.88;3.63;;;4.70;90.50;;;;;;4977033;28;20030;-68
2021/10/25 05:16:09;;;;;;;8.07;3.67;;;4.70;90.70;;;;;;4960588;28;20122;-68
2021/10/25 05:18:38;;;;;;;5.95;3.85;;;4.70;90.70;;;;;;4971895;28;20035;-70
2021/10/25 05:21:04;;;;;;;7.97;3.90;;;4.70;90.60;;;;;;4969126;28;20037;-70
2021/10/25 05:23:29;;;;;;;12.13;4.53;;;4.70;90.70;;;;;;4954910;28;20043;-69
2021/10/25 05:25:55;;;;;;;11.80;4.45;;;4.60;90.70;;;;;;4974237;28;20092;-70
2021/10/25 05:28:21;;;;;;;7.05;3.65;;;4.60;90.70;;;;;;4952848;28;20522;-70
2021/10/25 05:30:47;;;;;;;6.13;3.78;;;4.60;90.70;;;;;;4953251;28;20066;-70
2021/10/25 05:33:23;;;;;;;10.93;4.20;;;4.60;90.80;;;;;;4961142;28;20039;-70
2021/10/25 05:35:49;;;;;;;8.00;3.70;;;4.60;90.80;;;;;;4960610;28;20032;-70
2021/10/25 05:38:15;;;;;;;9.05;4.50;;;4.60;91.10;;;;;;4960843;28;20137;-64
2021/10/25 05:40:41;;;;;;;6.53;3.70;;;4.60;91.00;;;;;;4971280;28;20077;-67
2021/10/25 05:43:08;;;;;;;7.25;3.30;;;4.50;91.00;;;;;;4958363;28;20066;-65
2021/10/25 05:45:34;;;;;;;9.75;3.60;;;4.50;90.90;;;;;;4966796;28;20046;-65
2021/10/25 05:48:01;;;;;;;6.93;3.47;;;4.50;90.90;;;;;;4971077;28;20095;-65
2021/10/25 05:50:26;;;;;;;7.28;3.65;;;4.50;90.80;;;;;;4952718;28;20034;-65
2021/10/25 05:52:53;;;;;;;9.43;4.10;;;4.60;90.90;;;;;;4957781;28;20069;-63
2021/10/25 05:55:23;;;;;;;10.18;4.07;;;4.60;90.90;;;;;;4959083;28;20027;-66
2021/10/25 05:57:52;;;;;;;7.63;4.13;;;4.60;91.00;;;;;;4969816;28;20042;-67
2021/10/25 06:00:21;;;;;;;7.60;4.32;;;4.60;90.90;;;;;;4976203;28;20034;-67
2021/10/25 06:02:56;;;;;;;7.13;3.42;;;4.60;90.90;;;;;;4966522;28;20038;-67
2021/10/25 06:05:27;;;;;;;8.75;3.92;;;4.60;91.00;;;;;;4955275;28;20028;-67
2021/10/25 06:07:54;;;;;;;8.70;4.25;;;4.60;90.90;;;;;;4960274;28;20573;-67
2021/10/25 06:10:27;;;;;;;8.90;4.05;;;4.60;90.90;;;;;;4958854;28;20051;-63
2021/10/25 06:12:56;;;;;;;8.30;4.55;;;4.60;90.70;;;;;;4975088;28;20151;-68
2021/10/25 06:15:42;;;;;;;5.50;3.60;;;4.60;90.60;;;;;;4959224;28;20048;-68
2021/10/25 06:18:09;;;;;;;13.15;4.63;;;4.60;90.80;;;;;;4959502;28;20030;-68
2021/10/25 06:20:39;;;;;;;13.23;5.32;;;4.60;90.80;;;;;;4953922;28;20032;-67
2021/10/25 06:23:10;;;;;;;14.07;5.95;;;4.60;90.70;;;;;;4969480;28;20141;-68
2021/10/25 06:25:42;;;;;;;16.95;5.20;;;4.70;90.70;;;;;;4957494;28;20037;-68
2021/10/25 06:28:14;;;;;;;10.90;5.03;;;4.70;90.60;;;;;;4971527;28;20035;-67
2021/10/25 06:31:06;;;;;;;11.80;4.00;;;4.70;90.90;;;;;;4958699;28;20517;-67
2021/10/25 06:33:50;;;;;;;5.55;4.13;;;4.80;90.80;;;;;;4960882;28;20043;-68
2021/10/25 06:36:29;;;;;;;9.60;4.35;;;4.80;90.70;;;;;;4958800;28;20054;-68
2021/10/25 06:39:32;;;;;;;5.68;3.17;;;4.90;90.70;;;;;;4952894;28;20090;-67
2021/10/25 06:42:00;;;;;;;9.73;4.65;;;4.90;90.50;;;;;;4963042;28;20065;-70
2021/10/25 06:44:39;;;;;;;8.15;4.05;;;5.00;90.60;;;;;;4972191;28;20027;-68
2021/10/25 06:47:14;;;;;;;7.85;4.03;;;5.10;90.50;;;;;;4954683;28;20030;-68
2021/10/25 06:49:40;;;;;;;12.00;3.60;;;5.20;90.30;;;;;;4970391;28;20034;-64
2021/10/25 06:52:05;;;;;;;7.85;3.92;;;5.30;89.60;;;;;;4966985;28;20867;-63
2021/10/25 06:54:31;;;;;;;9.10;3.80;;;5.40;88.70;;;;;;4951021;28;20027;-64
2021/10/25 06:56:58;;;;;;;6.55;3.90;;;5.60;88.40;;;;;;4964580;28;20034;-65
2021/10/25 06:59:24;;;;;;;9.77;4.28;;;5.60;87.50;;;;;;4957768;28;20030;-63
2021/10/25 07:01:49;;;;;;;6.18;3.38;;;5.70;87.40;;;;;;4970152;28;20170;-64
2021/10/25 07:04:18;;;;;;;8.60;4.35;;;5.80;87.30;;;;;;4968282;28;20034;-65
2021/10/25 07:06:44;;;;;;;6.90;3.92;;;6.00;86.50;;;;;;4959340;28;20038;-66
2021/10/25 07:09:11;;;;;;;10.15;5.65;;;6.00;86.20;;;;;;4977129;28;20030;-65
2021/10/25 07:11:42;;;;;;;9.32;5.00;;;6.10;85.40;;;;;;4962122;28;20562;-63
2021/10/25 07:14:08;;;;;;;9.95;4.20;;;6.20;85.90;;;;;;4967772;28;20109;-64
2021/10/25 07:16:49;;;;;;;11.88;6.78;;;6.30;85.10;;;;;;4972316;28;20062;-63
2021/10/25 07:19:31;;;;;;;13.32;5.07;;;6.40;85.10;;;;;;4947193;28;20058;-65
2021/10/25 08:02:03;;;;;;;6.10;3.42;;;8.30;76.60;;;;;;4957730;28;20035;-64
2021/10/25 08:04:51;;;;;;;6.75;3.38;;;8.30;76.90;;;;;;4958093;28;20098;-66
2021/10/25 08:10:16;;;;;;;7.32;3.63;;;8.40;76.10;;;;;;4959968;28;20111;-64
2021/10/25 08:12:53;;;;;;;7.22;3.60;;;8.50;76.70;;;;;;4958440;28;20038;-64
2021/10/25 08:15:23;;;;;;;9.25;4.15;;;8.60;76.90;;;;;;4963958;28;20434;-62
2021/10/25 08:17:54;;;;;;;7.43;3.47;;;8.60;76.10;;;;;;4950923;28;20118;-62
2021/10/25 08:20:20;;;;;;;5.10;3.42;;;8.70;75.80;;;;;;4955051;28;20436;-64
2021/10/25 08:22:46;;;;;;;6.03;3.50;;;8.80;75.00;;;;;;4960804;28;20066;-62
2021/10/25 08:25:12;;;;;;;8.02;3.80;;;8.90;75.00;;;;;;4953580;28;20037;-64
2021/10/25 08:27:58;;;;;;;12.13;5.25;;;8.90;74.20;;;;;;4961733;28;20108;-66
2021/10/25 08:30:24;;;;;;;8.27;3.45;;;9.00;75.00;;;;;;4953495;28;20070;-65
2021/10/25 08:35:32;;;;;;;12.73;3.95;;;9.40;74.30;;;;;;4948748;28;20035;-65
2021/10/25 08:40:47;;;;;;;10.35;4.90;;;9.90;72.00;;;;;;4957952;28;20047;-65
2021/10/25 08:43:13;;;;;;;17.63;6.50;;;10.20;72.00;;;;;;4962580;28;20045;-66
2021/10/25 08:45:45;;;;;;;8.27;4.43;;;10.70;69.90;;;;;;4961711;28;20034;-66
2021/10/25 08:48:12;;;;;;;9.25;3.78;;;11.50;67.60;;;;;;4967854;28;20058;-65
2021/10/25 08:50:39;;;;;;;6.18;3.55;;;12.60;63.70;;;;;;4972349;28;20525;-62
2021/10/25 08:53:11;;;;;;;8.07;3.20;;;14.00;58.40;;;;;;4954652;28;20134;-65
2021/10/25 08:55:51;;;;;;;5.65;3.40;;;15.20;54.30;;;;;;4959335;28;20031;-67
2021/10/25 08:58:18;;;;;;;6.35;3.35;;;14.80;54.40;;;;;;4960326;28;20093;-64
2021/10/25 09:00:50;;;;;;;7.40;3.65;;;13.90;56.40;;;;;;4972099;28;20101;-64
2021/10/25 09:03:22;;;;;;;7.93;3.80;;;12.90;58.90;;;;;;4962452;28;20031;-64
2021/10/25 09:06:00;;;;;;;7.32;3.63;;;12.40;61.30;;;;;;4962617;28;20027;-64
2021/10/25 09:08:30;;;;;;;6.50;3.28;;;12.40;61.70;;;;;;4966068;28;20031;-64
2021/10/25 09:10:56;;;;;;;9.63;3.63;;;13.40;60.00;;;;;;4975310;28;20034;-65
2021/10/25 09:13:25;;;;;;;9.20;3.50;;;15.20;54.10;;;;;;4955640;28;20038;-64
2021/10/25 09:15:57;;;;;;;7.03;3.20;;;17.10;49.30;;;;;;4970966;28;20023;-64
2021/10/25 09:18:51;;;;;;;7.10;3.55;;;19.40;45.10;;;;;;4954383;28;20698;-64
2021/10/25 09:21:22;;;;;;;6.57;3.67;;;22.40;38.90;;;;;;4961059;28;20030;-64
2021/10/25 09:23:50;;;;;;;7.10;3.63;;;23.80;35.50;;;;;;4968423;28;20074;-64
2021/10/25 09:26:19;;;;;;;7.15;3.30;;;24.20;33.80;;;;;;4970245;28;20042;-62
2021/10/25 09:28:55;;;;;;;8.57;3.50;;;23.60;35.10;;;;;;4969762;28;20034;-64
2021/10/25 09:31:29;;;;;;;4.50;2.90;;;24.20;33.80;;;;;;4973871;28;20066;-63
2021/10/25 09:34:06;;;;;;;9.90;3.40;;;23.60;34.70;;;;;;4966546;28;20035;-70
2021/10/25 09:37:03;;;;;;;8.70;3.55;;;21.40;37.70;;;;;;4967246;28;20170;-65
2021/10/25 09:39:42;;;;;;;7.90;3.53;;;19.30;42.50;;;;;;4976011;28;20030;-66
2021/10/25 09:51:00;;;;;;;7.57;3.88;;;14.00;56.10;;;;;;4952396;28;20865;-65
2021/10/25 09:53:33;;;;;;;6.00;3.70;;;13.60;56.90;;;;;;4965745;28;20841;-68
2021/10/25 09:56:03;;;;;;;9.95;4.30;;;13.20;58.20;;;;;;4957496;28;20552;-73
2021/10/25 09:59:07;;;;;;;7.95;3.67;;;12.90;59.50;;;;;;4973298;28;20031;-67
2021/10/25 10:01:36;;;;;;;6.65;3.63;;;12.80;61.90;;;;;;4969216;28;20037;-66
2021/10/25 10:04:03;;;;;;;5.78;3.67;;;13.00;60.00;;;;;;4944714;28;20175;-65
2021/10/25 10:06:48;;;;;;;;;;;13.00;60.20;;;;;;4951938;28;20038;-66
2021/10/25 10:09:16;;;;;;;6.43;3.63;;;12.90;60.40;;;;;;4970849;28;19937;-65
2021/10/25 10:11:42;;;;;;;7.63;4.03;;;12.80;61.20;;;;;;4968993;28;20137;-66
2021/10/25 10:14:09;;;;;;;9.18;3.25;;;12.80;61.60;;;;;;4960305;28;20035;-67
2021/10/25 10:16:47;;;;;;;7.93;3.22;;;12.80;61.30;;;;;;4956780;28;20090;-66
2021/10/25 10:19:21;;;;;;;13.30;3.78;;;13.10;61.30;;;;;;4950955;28;20388;-66
2021/10/25 10:22:03;;;;;;;8.60;3.95;;;13.20;60.20;;;;;;4967100;28;20065;-66
2021/10/25 10:24:41;;;;;;;8.45;3.58;;;13.20;60.60;;;;;;4964847;28;20031;-66
2021/10/25 10:27:09;;;;;;;8.38;3.90;;;13.00;61.30;;;;;;4949401;28;20499;-67
2021/10/25 10:29:37;;;;;;;8.50;3.67;;;13.00;61.80;;;;;;4958046;28;20037;-64
2021/10/25 10:32:15;;;;;;;7.53;3.65;;;13.00;62.30;;;;;;4958304;28;20242;-65
2021/10/25 10:34:51;;;;;;;5.55;3.60;;;13.00;62.40;;;;;;4950578;28;20587;-66
2021/10/25 10:37:44;;;;;;;8.70;3.70;;;13.10;62.10;;;;;;4970791;28;20046;-66
2021/10/25 10:40:18;;;;;;;6.97;4.05;;;13.10;62.30;;;;;;4971868;28;20038;-66
2021/10/25 10:43:09;;;;;;;7.20;3.60;;;13.10;61.60;;;;;;4952886;28;20606;-64
2021/10/25 10:45:35;;;;;;;8.38;3.53;;;13.10;62.20;;;;;;4966939;28;20035;-65
2021/10/25 10:48:03;;;;;;;12.07;4.03;;;13.00;62.90;;;;;;4966781;28;20030;-67
2021/10/25 10:50:48;;;;;;;8.38;3.90;;;12.90;61.90;;;;;;4964862;28;20053;-64
2021/10/25 10:53:23;;;;;;;7.40;3.92;;;12.80;63.20;;;;;;4949032;28;20543;-65
2021/10/25 10:55:53;;;;;;;6.28;3.65;;;12.80;64.30;;;;;;4954697;28;20506;-66
2021/10/25 11:00:48;;;;;;;9.35;4.03;;;12.90;63.50;;;;;;4946693;28;20039;-65
2021/10/25 11:03:24;;;;;;;7.53;3.85;;;13.10;63.30;;;;;;4944750;28;20042;-66
2021/10/25 11:05:55;;;;;;;9.90;4.20;;;13.20;63.00;;;;;;4955833;28;20594;-65
2021/10/25 11:08:24;;;;;;;6.35;4.07;;;13.30;62.00;;;;;;4956450;28;20034;-63
2021/10/25 11:11:03;;;;;;;6.60;4.05;;;13.30;61.70;;;;;;4955980;28;20027;-65
2021/10/25 11:13:33;;;;;;;7.93;4.43;;;13.30;62.20;;;;;;4954379;28;20039;-66
2021/10/25 11:16:11;;;;;;;8.45;4.35;;;13.40;62.60;;;;;;4966758;28;20135;-66
2021/10/25 11:18:41;;;;;;;7.15;4.00;;;13.50;61.80;;;;;;4953756;28;20224;-66
2021/10/25 11:21:32;;;;;;;7.47;3.65;;;13.60;62.00;;;;;;4946801;28;20046;-64
2021/10/25 11:24:02;;;;;;;6.68;4.18;;;13.70;62.30;;;;;;4952126;28;20033;-65
2021/10/25 11:26:50;;;;;;;13.00;5.03;;;13.80;61.00;;;;;;4964424;28;20038;-64
2021/10/25 11:29:26;;;;;;;7.47;4.32;;;13.90;61.50;;;;;;4949720;28;20754;-65
2021/10/25 11:32:01;;;;;;;11.18;4.72;;;14.00;60.00;;;;;;4939601;28;20053;-65
2021/10/25 11:34:46;;;;;;;7.57;4.25;;;14.30;60.20;;;;;;4940478;28;20038;-65
2021/10/25 11:37:20;;;;;;;7.35;4.10;;;14.40;59.00;;;;;;4947902;28;20082;-65
2021/10/25 11:39:56;;;;;;;7.60;4.43;;;14.30;60.00;;;;;;4955616;28;20062;-65
2021/10/25 11:42:28;;;;;;;9.07;4.45;;;14.10;61.00;;;;;;4952893;28;20042;-66
2021/10/25 11:44:56;;;;;;;8.13;4.53;;;14.10;62.50;;;;;;4947372;28;20478;-65
2021/10/25 11:47:23;;;;;;;8.25;4.35;;;14.10;62.10;;;;;;4952508;28;20034;-65
2021/10/25 11:49:52;;;;;;;8.27;4.45;;;14.10;61.50;;;;;;4948553;28;20031;-65
2021/10/25 11:52:18;;;;;;;9.18;5.07;;;14.20;61.60;;;;;;4969917;28;20038;-63
2021/10/25 11:54:52;;;;;;;10.18;4.63;;;14.30;61.60;;;;;;4955753;28;20507;-66
2021/10/25 11:57:19;;;;;;;8.70;4.07;;;14.50;60.40;;;;;;4949293;28;20038;-65
2021/10/25 12:00:20;;;;;;;10.75;5.00;;;14.50;60.80;;;;;;4972793;28;20118;-65
2021/10/25 12:02:53;;;;;;;12.05;4.50;;;14.40;60.60;;;;;;4933615;28;20035;-64
2021/10/25 12:05:24;;;;;;;9.52;4.75;;;14.30;61.10;;;;;;4947897;28;20050;-65
2021/10/25 12:07:53;;;;;;;7.72;4.75;;;14.20;61.80;;;;;;4959554;28;20034;-64
2021/10/25 12:10:21;;;;;;;7.05;4.10;;;14.20;62.30;;;;;;4956900;28;20618;-65
2021/10/25 12:12:54;;;;;;;9.15;4.40;;;14.20;62.40;;;;;;4957199;28;20031;-64
2021/10/25 12:15:22;;;;;;;8.18;4.07;;;14.30;62.90;;;;;;4958180;28;20113;-64
2021/10/25 12:17:49;;;;;;;9.98;4.72;;;14.40;61.00;;;;;;4956053;28;20073;-65
2021/10/25 12:20:24;;;;;;;9.93;4.45;;;14.30;61.70;;;;;;4958572;28;20058;-66
2021/10/25 12:23:17;;;;;;;7.13;4.10;;;14.30;61.30;;;;;;4957058;28;20160;-64
2021/10/25 12:25:45;;;;;;;6.32;4.13;;;14.30;62.40;;;;;;4950181;28;20047;-66
2021/10/25 12:28:12;;;;;;;9.30;4.13;;;14.30;61.60;;;;;;4960567;28;20101;-67
2021/10/25 12:30:38;;;;;;;9.00;4.15;;;14.30;62.70;;;;;;4961200;28;20431;-68
2021/10/25 12:33:04;;;;;;;10.50;4.70;;;14.40;63.20;;;;;;4964482;28;20023;-69
2021/10/25 12:35:37;;;;;;;10.32;5.10;;;14.50;61.60;;;;;;4962060;28;20434;-68
2021/10/25 12:38:09;;;;;;;5.85;4.03;;;14.40;62.50;;;;;;4951613;28;20043;-67
2021/10/25 12:41:07;;;;;;;7.70;4.45;;;14.40;62.50;;;;;;4972353;28;20035;-69
2021/10/25 12:43:44;;;;;;;8.60;4.15;;;14.50;61.90;;;;;;4955693;28;20043;-71
2021/10/25 12:46:14;;;;;;;8.25;4.40;;;14.60;62.20;;;;;;4975899;28;20035;-70
2021/10/25 12:48:49;;;;;;;9.13;4.85;;;14.70;61.30;;;;;;4957756;28;20038;-69
2021/10/25 12:51:16;;;;;;;11.25;4.18;;;14.60;61.50;;;;;;4957401;28;20042;-66
2021/10/25 12:53:45;;;;;;;11.18;4.82;;;14.50;62.70;;;;;;4953341;28;20130;-69
2021/10/25 12:56:12;;;;;;;8.93;4.53;;;14.60;63.30;;;;;;4961244;28;20039;-72
2021/10/25 12:58:42;;;;;;;13.30;5.20;;;14.50;62.70;;;;;;4978165;28;20030;-67
2021/10/25 13:01:12;;;;;;;9.10;5.38;;;14.50;62.70;;;;;;4963586;28;20081;-68
2021/10/25 13:03:47;;;;;;;13.48;5.93;;;14.40;63.10;;;;;;4959800;28;20070;-69
2021/10/25 13:06:13;;;;;;;16.38;6.70;;;14.40;63.60;;;;;;4959968;28;20377;-69
2021/10/25 13:08:39;;;;;;;7.82;4.80;;;14.40;64.30;;;;;;4952262;28;20138;-67
2021/10/25 13:11:06;;;;;;;8.95;4.70;;;14.50;63.40;;;;;;4959113;28;20141;-69
2021/10/25 13:13:33;;;;;;;7.65;4.47;;;14.50;63.20;;;;;;4958571;28;20109;-69
2021/10/25 13:15:59;;;;;;;7.38;4.28;;;14.50;63.40;;;;;;4955025;28;20030;-71
2021/10/25 13:18:25;;;;;;;9.20;4.85;;;14.50;62.80;;;;;;4958866;28;20019;-71
2021/10/25 13:20:51;;;;;;;14.63;5.18;;;14.50;63.40;;;;;;4960121;28;21516;-71
2021/10/25 13:23:17;;;;;;;8.65;4.40;;;14.50;63.60;;;;;;4962429;28;20035;-69
2021/10/25 13:25:43;;;;;;;9.15;4.65;;;14.50;63.40;;;;;;4961529;28;20127;-70
2021/10/25 13:28:09;;;;;;;9.30;4.68;;;14.40;64.10;;;;;;4959778;28;20047;-70
2021/10/25 13:30:37;;;;;;;7.13;4.70;;;14.40;64.90;;;;;;4949973;28;20027;-70
2021/10/25 13:33:03;;;;;;;9.85;4.50;;;14.40;64.70;;;;;;4981283;28;20050;-72
2021/10/25 13:35:29;;;;;;;13.23;5.20;;;14.40;63.60;;;;;;4966640;28;20070;-72
2021/10/25 13:37:56;;;;;;;6.95;4.03;;;14.30;63.50;;;;;;4952909;28;20077;-70
2021/10/25 13:40:31;;;;;;;7.45;4.70;;;14.20;65.00;;;;;;4959967;28;20019;-70
2021/10/25 13:42:58;;;;;;;7.68;4.68;;;14.20;64.80;;;;;;4970127;28;20950;-71
2021/10/25 13:45:25;;;;;;;9.80;4.68;;;14.20;64.90;;;;;;4958491;28;20752;-69
2021/10/25 13:47:51;;;;;;;9.00;4.57;;;14.10;65.00;;;;;;4950882;28;20090;-71
2021/10/25 13:50:18;;;;;;;10.15;4.85;;;14.10;65.10;;;;;;4952504;28;20046;-72
2021/10/25 13:52:44;;;;;;;8.65;4.50;;;14.00;65.40;;;;;;4965615;28;20108;-72
2021/10/25 13:55:11;;;;;;;11.82;5.45;;;13.90;65.60;;;;;;4957540;28;20042;-71
2021/10/25 13:57:39;;;;;;;8.80;3.95;;;14.00;65.30;;;;;;4957973;28;20041;-72
2021/10/25 14:00:07;;;;;;;8.77;4.15;;;13.90;66.20;;;;;;4956119;28;20038;-70
2021/10/25 14:02:40;;;;;;;9.90;5.05;;;13.90;65.80;;;;;;4950916;28;20035;-70
2021/10/25 14:05:06;;;;;;;9.35;4.72;;;13.90;66.70;;;;;;4962778;28;20039;-71
2021/10/25 14:07:34;;;;;;;6.85;4.78;;;13.80;66.50;;;;;;4957216;28;20037;-72
2021/10/25 14:10:06;;;;;;;6.95;4.50;;;13.80;65.80;;;;;;4955553;28;20046;-71
2021/10/25 14:12:33;;;;;;;10.88;4.68;;;13.70;67.20;;;;;;4967375;28;20773;-71
2021/10/25 14:15:43;;;;;;;6.82;4.38;;;13.60;67.40;;;;;;4959210;28;20041;-70
2021/10/25 14:17:53;;;;;;;7.15;5.18;;;13.50;67.30;;;;;;4964572;28;20066;-70
2021/10/25 14:20:21;;;;;;;10.07;4.63;;;13.60;66.80;;;;;;4950247;28;20111;-72
2021/10/25 14:22:47;;;;;;;7.72;4.22;;;13.50;67.40;;;;;;4948171;28;20042;-73
2021/10/25 14:25:14;;;;;;;7.55;4.03;;;13.50;67.10;;;;;;4963259;28;20580;-72
2021/10/25 14:27:40;;;;;;;9.30;4.03;;;13.50;67.50;;;;;;4943061;28;20823;-72
2021/10/25 14:30:07;;;;;;;7.20;3.70;;;13.50;68.20;;;;;;4953725;28;20109;-72
2021/10/25 14:32:33;;;;;;;7.45;4.00;;;13.40;68.60;;;;;;4948727;28;20034;-71
2021/10/25 14:35:00;;;;;;;10.07;5.07;;;13.40;68.70;;;;;;4955459;28;20034;-71
2021/10/25 14:37:32;;;;;;;6.13;4.22;;;13.40;68.20;;;;;;4966231;28;20411;-72
2021/10/25 14:39:58;;;;;;;9.27;4.15;;;13.30;68.70;;;;;;4965001;28;20126;-72
2021/10/25 14:42:32;;;;;;;10.88;5.75;;;13.30;69.00;;;;;;4951836;28;20031;-72